Bookmark and Share
Track history (hours):
 

Azalea Ace

Last reported at 2014-Apr-24 10:32 UTC. Time now 2014-Apr-24 11:20 UTC.
Position N 35°26' E 139°45'.

Length 180 m; draft 7.1 m.

Type: Cargo ship. MMSI: 636015228.

NotesDate/timePositionNaut miles runAvg speedWind from/ knotsBaromVisibWave heightAir tempDewpointWater temp
2014-Apr-24 10:32N 35°26' E 139°45'0 0.0
2014-Apr-24 09:32N 35°26' E 139°45'2 2.3
2014-Apr-24 08:33N 35°25' E 139°47'6 5.9
2014-Apr-24 07:32N 35°22' E 139°54'0 0.0
2014-Apr-24 06:32N 35°22' E 139°54'0 0.0
2014-Apr-24 05:31N 35°22' E 139°54'0 0.0
2014-Apr-24 04:25N 35°22' E 139°54'0 0.0
2014-Apr-24 03:32N 35°22' E 139°54'0 0.0
2014-Apr-24 02:31N 35°22' E 139°54'0 0.0
2014-Apr-24 01:31N 35°22' E 139°54'0 0.0
2014-Apr-24 00:32N 35°22' E 139°54'0 0.0
2014-Apr-23 23:29N 35°22' E 139°54'0 0.0
2014-Apr-23 22:31N 35°22' E 139°54'0 0.2
2014-Apr-23 21:33N 35°22' E 139°53'6 6.5
2014-Apr-23 20:33N 35°22' E 139°45'1111.2
2014-Apr-23 19:33N 35°11' E 139°47'9 8.5
2014-Apr-23 18:33N 35°03' E 139°44'8 8.4
2014-Apr-23 17:33N 34°54' E 139°43'1413.8
2014-Apr-23 16:33N 34°42' E 139°49'  

Dump ship's entire track history

sailing weather and tide predictions

Azalea Ace — A8ZJ6 — position and weather